createdAt,value
2023-01-22T00:01:20.669Z,67.67
2023-01-22T00:03:49.571Z,61.75
2023-01-22T00:06:17.789Z,59.29
2023-01-22T00:08:48.430Z,63.30
2023-01-22T00:11:17.611Z,62.32
2023-01-22T00:13:45.826Z,60.82
2023-01-22T00:16:15.712Z,61.35
2023-01-22T00:18:44.028Z,62.69
2023-01-22T00:21:13.154Z,63.54
2023-01-22T00:23:41.294Z,62.93
2023-01-22T00:26:15.420Z,62.37
2023-01-22T00:28:45.512Z,62.20
2023-01-22T00:31:15.303Z,64.73
2023-01-22T00:33:43.162Z,66.51
2023-01-22T00:36:16.670Z,64.65
2023-01-22T00:38:45.516Z,68.60
2023-01-22T00:41:14.343Z,69.11
2023-01-22T00:43:42.058Z,70.57
2023-01-22T00:46:12.457Z,72.15
2023-01-22T00:48:40.252Z,70.99
2023-01-22T00:51:08.960Z,68.54
2023-01-22T00:53:37.967Z,74.02
2023-01-22T00:56:06.106Z,66.79
2023-01-22T00:58:34.048Z,68.72
2023-01-22T01:01:02.375Z,65.96
2023-01-22T01:03:31.876Z,64.33
2023-01-22T01:06:10.773Z,65.81
2023-01-22T01:08:42.319Z,67.20
2023-01-22T01:11:13.800Z,64.55
2023-01-22T01:13:43.640Z,65.32
2023-01-22T01:16:21.228Z,67.61
2023-01-22T01:18:48.833Z,68.97
2023-01-22T01:21:18.060Z,69.07
2023-01-22T01:23:46.024Z,68.42
2023-01-22T01:26:15.853Z,68.02
2023-01-22T01:28:45.642Z,68.72
2023-01-22T01:31:15.997Z,72.46
2023-01-22T01:33:44.499Z,72.56
2023-01-22T01:36:15.309Z,72.46
2023-01-22T01:38:44.229Z,73.62
2023-01-22T01:41:16.301Z,76.37
2023-01-22T01:43:44.523Z,77.83
2023-01-22T01:46:24.740Z,75.84
2023-01-22T01:48:55.639Z,76.80
2023-01-22T01:51:30.067Z,76.03
2023-01-22T01:53:59.819Z,78.10
2023-01-22T01:56:33.945Z,74.88
2023-01-22T01:59:06.314Z,73.92
2023-01-22T02:01:35.163Z,73.17
2023-01-22T02:04:03.490Z,75.51
2023-01-22T02:06:31.829Z,74.96
2023-01-22T02:09:00.563Z,77.38
2023-01-22T02:11:29.529Z,78.88
2023-01-22T02:14:01.756Z,82.32
2023-01-22T02:16:29.614Z,82.59
2023-01-22T02:18:57.168Z,77.06
2023-01-22T02:21:41.945Z,76.73
2023-01-22T02:24:16.197Z,79.31
2023-01-22T02:26:45.812Z,79.19
2023-01-22T02:29:17.989Z,76.30
2023-01-22T02:31:45.606Z,80.57
2023-01-22T02:34:14.086Z,82.29
2023-01-22T02:36:43.062Z,82.69
2023-01-22T02:39:11.011Z,82.56
2023-01-22T02:41:38.926Z,81.19
2023-01-22T02:44:07.575Z,84.72
2023-01-22T02:46:36.205Z,86.69
2023-01-22T02:49:05.000Z,86.81
2023-01-22T02:51:33.543Z,85.64
2023-01-22T02:54:01.266Z,84.66
2023-01-22T02:56:28.926Z,83.83
2023-01-22T02:58:57.833Z,82.86
2023-01-22T03:01:26.337Z,86.36
2023-01-22T03:04:20.840Z,85.86
2023-01-22T03:06:48.964Z,86.20
2023-01-22T03:09:18.169Z,85.59
2023-01-22T03:11:47.854Z,85.74
2023-01-22T03:14:42.177Z,83.39
2023-01-22T03:17:28.261Z,82.80
2023-01-22T03:20:14.906Z,81.38
2023-01-22T03:22:45.227Z,79.73
2023-01-22T03:25:13.628Z,78.00
2023-01-22T03:28:01.396Z,77.68
2023-01-22T03:30:29.982Z,77.92
2023-01-22T03:32:58.933Z,76.92
2023-01-22T03:35:26.519Z,76.61
2023-01-22T03:38:07.365Z,75.51
2023-01-22T03:40:35.686Z,76.49
2023-01-22T03:43:03.683Z,76.37
2023-01-22T03:45:33.988Z,74.01
2023-01-22T03:48:02.422Z,77.15
2023-01-22T03:50:35.976Z,78.53
2023-01-22T03:53:04.212Z,76.18
2023-01-22T03:55:33.545Z,75.60
2023-01-22T03:58:01.062Z,75.99
2023-01-22T04:00:29.539Z,76.15
2023-01-22T04:02:57.198Z,76.72
2023-01-22T04:05:31.296Z,78.26
2023-01-22T04:07:58.861Z,77.95
2023-01-22T04:10:29.427Z,80.61
2023-01-22T04:12:56.988Z,81.38
2023-01-22T04:15:24.679Z,81.43
2023-01-22T04:17:54.387Z,81.34
2023-01-22T04:20:41.534Z,78.75
2023-01-22T04:23:22.020Z,77.76
2023-01-22T04:25:52.975Z,78.70
2023-01-22T04:28:21.581Z,77.26
2023-01-22T04:30:55.083Z,75.97
2023-01-22T04:33:36.980Z,77.61
2023-01-22T04:36:11.523Z,77.17
2023-01-22T04:38:39.124Z,76.18
2023-01-22T04:41:07.121Z,77.53
2023-01-22T04:43:34.601Z,79.23
2023-01-22T04:46:03.636Z,80.18
2023-01-22T04:48:33.775Z,80.12
2023-01-22T04:51:01.898Z,81.43
2023-01-22T04:53:31.529Z,81.71
2023-01-22T04:55:59.109Z,82.21
2023-01-22T04:58:27.456Z,82.16
2023-01-22T05:00:58.311Z,81.48
2023-01-22T05:03:25.885Z,81.69
2023-01-22T05:05:53.540Z,80.97
2023-01-22T05:08:21.270Z,76.12
2023-01-22T05:10:49.282Z,76.48
2023-01-22T05:13:30.458Z,75.88
2023-01-22T05:15:57.993Z,76.70
2023-01-22T05:18:26.853Z,77.44
2023-01-22T05:20:54.405Z,77.42
2023-01-22T05:23:24.347Z,74.78
2023-01-22T05:25:52.286Z,75.53
2023-01-22T05:28:27.789Z,74.47
2023-01-22T05:31:19.086Z,73.58
2023-01-22T05:34:08.531Z,74.54
2023-01-22T05:36:36.458Z,76.73
2023-01-22T05:39:09.648Z,76.42
2023-01-22T05:41:38.040Z,76.29
2023-01-22T05:44:07.029Z,77.66
2023-01-22T05:46:35.213Z,80.45
2023-01-22T05:49:15.005Z,76.71
2023-01-22T05:51:42.621Z,77.67
2023-01-22T05:54:10.396Z,79.66
2023-01-22T05:56:40.276Z,78.37
2023-01-22T05:59:13.049Z,77.98
2023-01-22T06:01:41.781Z,77.82
2023-01-22T06:04:10.767Z,79.29
2023-01-22T06:06:38.878Z,80.32
2023-01-22T06:09:07.375Z,80.58
2023-01-22T06:11:38.593Z,76.08
2023-01-22T06:14:06.981Z,78.68
2023-01-22T06:16:34.711Z,78.44
2023-01-22T06:19:05.086Z,78.94
2023-01-22T06:21:53.777Z,77.41
2023-01-22T06:24:28.597Z,78.61
2023-01-22T06:26:56.358Z,77.61
2023-01-22T06:29:31.106Z,77.27
2023-01-22T06:31:58.810Z,76.28
2023-01-22T06:34:26.953Z,76.17
2023-01-22T06:36:54.690Z,73.58
2023-01-22T06:39:25.302Z,73.55
2023-01-22T06:42:04.329Z,72.91
2023-01-22T06:44:32.260Z,69.77
2023-01-22T06:46:59.956Z,71.70
2023-01-22T06:49:30.459Z,71.70
2023-01-22T06:51:58.006Z,70.95
2023-01-22T06:54:26.199Z,71.35
2023-01-22T06:56:54.131Z,71.60
2023-01-22T06:59:23.886Z,72.61
2023-01-22T07:01:51.706Z,73.06
2023-01-22T07:04:19.214Z,71.19
2023-01-22T07:06:46.795Z,70.76
2023-01-22T07:09:14.406Z,69.58
2023-01-22T07:11:41.866Z,70.16
2023-01-22T07:14:09.869Z,69.65
2023-01-22T07:16:37.832Z,72.13
2023-01-22T07:19:06.373Z,74.71
2023-01-22T07:21:34.081Z,71.96
2023-01-22T07:24:01.671Z,69.67
2023-01-22T07:26:29.172Z,68.44
2023-01-22T07:28:57.263Z,68.21
2023-01-22T07:31:25.232Z,67.09
2023-01-22T07:33:52.694Z,67.90
2023-01-22T07:36:20.939Z,68.89
2023-01-22T07:38:48.910Z,68.16
2023-01-22T07:41:25.530Z,66.38
2023-01-22T07:43:56.161Z,65.07
2023-01-22T07:46:23.924Z,63.00
2023-01-22T07:48:51.453Z,57.79
2023-01-22T07:51:20.035Z,57.09
2023-01-22T07:53:47.572Z,55.02
2023-01-22T07:56:15.516Z,55.97
2023-01-22T07:58:43.167Z,53.23
2023-01-22T08:01:11.494Z,50.92
2023-01-22T08:03:40.118Z,50.59
2023-01-22T08:06:12.402Z,50.12
2023-01-22T08:08:39.958Z,48.63
2023-01-22T08:11:08.444Z,49.51
2023-01-22T08:13:36.092Z,48.42
2023-01-22T08:16:03.843Z,48.64
2023-01-22T08:18:31.645Z,48.13
2023-01-22T08:21:02.702Z,47.66
2023-01-22T08:23:30.748Z,47.86
2023-01-22T08:26:03.330Z,46.85
2023-01-22T08:28:32.005Z,47.90
2023-01-22T08:31:01.497Z,47.17
2023-01-22T08:33:31.744Z,47.09
2023-01-22T08:35:59.762Z,46.73
2023-01-22T08:38:27.477Z,44.81
2023-01-22T08:40:55.506Z,43.71
2023-01-22T08:43:23.435Z,43.60
2023-01-22T08:45:51.559Z,43.14
2023-01-22T08:48:19.246Z,42.95
2023-01-22T08:50:47.207Z,42.14
2023-01-22T08:53:14.882Z,43.00
2023-01-22T08:55:48.863Z,42.61
2023-01-22T08:58:16.275Z,42.96
2023-01-22T09:00:44.715Z,42.46
2023-01-22T09:03:13.176Z,43.00
2023-01-22T09:05:40.921Z,40.69
2023-01-22T09:08:09.067Z,38.78
2023-01-22T09:10:36.960Z,38.66
2023-01-22T09:13:04.972Z,37.61
2023-01-22T09:15:32.908Z,35.79
2023-01-22T09:18:00.379Z,36.46
2023-01-22T09:20:28.853Z,37.54
2023-01-22T09:22:56.806Z,39.05
2023-01-22T09:25:24.303Z,38.76
2023-01-22T09:27:58.206Z,39.20
2023-01-22T09:30:28.221Z,39.49
2023-01-22T09:32:56.034Z,40.50
2023-01-22T09:35:24.764Z,41.06
2023-01-22T09:37:52.240Z,41.87
2023-01-22T09:40:32.053Z,42.76
2023-01-22T09:43:34.607Z,42.99
2023-01-22T09:46:08.587Z,42.74
2023-01-22T09:48:41.769Z,42.26
2023-01-22T09:51:14.529Z,42.22
2023-01-22T09:53:46.153Z,42.10
2023-01-22T09:56:29.926Z,42.63
2023-01-22T09:58:59.630Z,43.50
2023-01-22T10:01:27.802Z,44.26
2023-01-22T10:04:03.236Z,43.01
2023-01-22T10:06:31.713Z,43.77
2023-01-22T10:09:12.472Z,42.77
2023-01-22T10:11:40.580Z,43.10
2023-01-22T10:14:14.234Z,43.45
2023-01-22T10:16:42.098Z,44.07
2023-01-22T10:19:12.307Z,44.31
2023-01-22T10:21:47.611Z,43.93
2023-01-22T10:24:15.575Z,44.41
2023-01-22T10:26:47.525Z,44.02
2023-01-22T10:29:24.452Z,43.74
2023-01-22T10:31:58.051Z,41.64
2023-01-22T10:34:37.190Z,40.18
2023-01-22T10:37:16.890Z,39.63
2023-01-22T10:39:49.137Z,40.21
2023-01-22T10:42:25.562Z,39.69
2023-01-22T10:45:09.361Z,40.46
2023-01-22T10:47:37.209Z,40.30
2023-01-22T10:50:16.690Z,39.17
2023-01-22T10:52:55.384Z,37.78
2023-01-22T10:55:30.901Z,38.20
2023-01-22T10:58:02.875Z,36.56
2023-01-22T11:00:51.531Z,35.09
2023-01-22T11:03:30.953Z,35.29
2023-01-22T11:06:18.576Z,37.65
2023-01-22T11:09:08.334Z,37.72
2023-01-22T11:11:41.318Z,35.37
2023-01-22T11:14:18.096Z,35.16
2023-01-22T11:16:50.121Z,34.93
2023-01-22T11:19:36.297Z,34.99
2023-01-22T11:22:15.321Z,35.26
2023-01-22T11:24:49.862Z,35.61
2023-01-22T11:27:43.456Z,35.28
2023-01-22T11:30:31.975Z,34.91
2023-01-22T11:33:20.933Z,34.83
2023-01-22T11:36:06.762Z,32.66
2023-01-22T11:38:40.051Z,34.55
2023-01-22T11:41:27.820Z,35.00
2023-01-22T11:44:23.002Z,33.66
2023-01-22T11:47:33.391Z,34.45
2023-01-22T11:50:27.465Z,33.66
2023-01-22T11:53:09.588Z,33.84
2023-01-22T11:55:55.614Z,32.40
2023-01-22T11:58:49.953Z,33.10
2023-01-22T12:01:48.381Z,32.79
2023-01-22T12:04:40.905Z,32.28
2023-01-22T12:07:17.912Z,31.71
2023-01-22T12:10:01.798Z,32.53
2023-01-22T12:12:57.180Z,32.72
2023-01-22T12:16:05.445Z,32.44
2023-01-22T12:18:40.920Z,33.44
2023-01-22T12:21:20.709Z,33.73
2023-01-22T12:23:59.991Z,32.42
2023-01-22T12:26:31.833Z,31.67
2023-01-22T12:29:11.797Z,31.91
2023-01-22T12:31:45.969Z,32.04
2023-01-22T12:34:38.722Z,32.18
2023-01-22T12:37:08.283Z,31.41
2023-01-22T12:39:43.341Z,31.63
2023-01-22T12:42:32.016Z,31.15
2023-01-22T12:45:17.272Z,31.20
2023-01-22T12:47:45.515Z,31.29
2023-01-22T12:50:21.567Z,32.00
2023-01-22T12:53:03.982Z,32.11
2023-01-22T12:55:37.969Z,33.24
2023-01-22T12:58:21.833Z,32.64
2023-01-22T13:01:00.974Z,31.35
2023-01-22T13:03:31.919Z,32.54
2023-01-22T13:06:02.301Z,32.98
2023-01-22T13:08:36.148Z,32.22
2023-01-22T13:11:10.214Z,32.11
2023-01-22T13:13:37.785Z,31.83
2023-01-22T13:16:26.980Z,32.01
2023-01-22T13:18:58.051Z,32.04
2023-01-22T13:21:30.467Z,31.82
2023-01-22T13:24:13.535Z,31.68
2023-01-22T13:26:41.761Z,30.04
2023-01-22T13:29:26.133Z,29.90
2023-01-22T13:31:58.967Z,30.16
2023-01-22T13:34:27.992Z,30.00
2023-01-22T13:36:56.347Z,31.21
2023-01-22T13:39:28.457Z,31.51
2023-01-22T13:41:59.816Z,31.06
2023-01-22T13:44:33.266Z,31.05
2023-01-22T13:47:01.597Z,30.56
2023-01-22T13:49:31.909Z,30.32
2023-01-22T13:52:06.586Z,30.81
2023-01-22T13:54:44.136Z,31.04
2023-01-22T13:57:13.957Z,29.65
2023-01-22T13:59:55.555Z,30.46
2023-01-22T14:02:27.850Z,30.89
2023-01-22T14:04:55.784Z,33.04
2023-01-22T14:07:29.057Z,35.49
2023-01-22T14:09:58.742Z,37.19
2023-01-22T14:12:29.309Z,37.13
2023-01-22T14:14:57.233Z,37.11
2023-01-22T14:17:28.927Z,38.54
2023-01-22T14:19:57.618Z,40.19
2023-01-22T14:22:26.128Z,40.75
2023-01-22T14:24:54.806Z,40.84
2023-01-22T14:27:25.818Z,41.93
2023-01-22T14:29:55.139Z,42.50
2023-01-22T14:32:23.822Z,42.95
2023-01-22T14:34:51.285Z,43.01
2023-01-22T14:37:21.123Z,43.80
2023-01-22T14:39:48.745Z,44.51
2023-01-22T14:42:17.478Z,44.47
2023-01-22T14:44:44.995Z,44.67
2023-01-22T14:47:12.653Z,45.94
2023-01-22T14:49:40.294Z,45.61
2023-01-22T14:52:07.910Z,46.13
2023-01-22T14:54:35.839Z,46.46
2023-01-22T14:57:04.009Z,47.04
2023-01-22T14:59:31.529Z,47.30
2023-01-22T15:01:59.167Z,47.33
2023-01-22T15:04:27.175Z,47.45
2023-01-22T15:06:54.744Z,47.48
2023-01-22T15:09:23.301Z,47.66
2023-01-22T15:11:50.802Z,47.45
2023-01-22T15:14:18.689Z,48.25
2023-01-22T15:16:46.881Z,48.22
2023-01-22T15:19:16.896Z,48.33
2023-01-22T15:21:46.191Z,49.58
2023-01-22T15:24:13.797Z,50.05
2023-01-22T15:26:41.940Z,50.70
2023-01-22T15:29:12.810Z,50.84
2023-01-22T15:31:41.597Z,51.97
2023-01-22T15:34:09.917Z,51.60
2023-01-22T15:36:41.137Z,52.95
2023-01-22T15:39:08.958Z,52.77
2023-01-22T15:41:37.462Z,53.45
2023-01-22T15:44:06.231Z,53.62
2023-01-22T15:46:37.902Z,54.18
2023-01-22T15:49:12.424Z,55.02
2023-01-22T15:51:41.391Z,55.55
2023-01-22T15:54:15.086Z,56.08
2023-01-22T15:56:42.918Z,56.46
2023-01-22T15:59:11.956Z,56.81
2023-01-22T16:01:39.913Z,57.75
2023-01-22T16:04:08.624Z,57.83
2023-01-22T16:06:36.216Z,57.25
2023-01-22T16:09:07.422Z,57.64
2023-01-22T16:11:35.163Z,58.24
2023-01-22T16:14:02.968Z,58.20
2023-01-22T16:16:37.176Z,59.10
2023-01-22T16:19:07.351Z,58.91
2023-01-22T16:21:35.991Z,57.95
2023-01-22T16:24:04.463Z,57.11
2023-01-22T16:26:34.925Z,57.19
2023-01-22T16:29:04.635Z,57.29
2023-01-22T16:31:34.568Z,57.48
2023-01-22T16:34:14.862Z,56.22
2023-01-22T16:36:43.344Z,56.66
2023-01-22T16:39:23.169Z,56.16
2023-01-22T16:41:52.337Z,55.63
2023-01-22T16:44:26.448Z,55.40
2023-01-22T16:46:57.617Z,55.53
2023-01-22T16:49:28.569Z,55.00
2023-01-22T16:52:03.130Z,54.06
2023-01-22T16:54:38.671Z,53.47
2023-01-22T16:57:08.603Z,54.06
2023-01-22T16:59:38.031Z,54.50
2023-01-22T17:02:13.860Z,54.52
2023-01-22T17:04:41.689Z,54.53
2023-01-22T17:07:17.764Z,54.17
2023-01-22T17:09:51.806Z,53.86
2023-01-22T17:12:19.314Z,53.49
2023-01-22T17:14:52.776Z,53.32
2023-01-22T17:17:20.777Z,53.84
2023-01-22T17:19:48.336Z,52.97
2023-01-22T17:22:16.181Z,52.46
2023-01-22T17:24:43.865Z,51.91
2023-01-22T17:27:18.211Z,51.79
2023-01-22T17:29:46.143Z,51.06
2023-01-22T17:32:13.748Z,50.53
2023-01-22T17:34:42.055Z,50.28
2023-01-22T17:37:11.195Z,50.84
2023-01-22T17:39:38.989Z,50.42
2023-01-22T17:42:07.140Z,51.12
2023-01-22T17:44:35.040Z,50.47
2023-01-22T17:47:03.449Z,51.04
2023-01-22T17:49:33.268Z,50.21
2023-01-22T17:52:00.871Z,51.54
2023-01-22T17:54:28.968Z,50.43
2023-01-22T17:56:57.512Z,50.14
2023-01-22T17:59:25.826Z,49.82
2023-01-22T18:01:53.779Z,50.22
2023-01-22T18:04:21.409Z,49.89
2023-01-22T18:06:49.953Z,49.31
2023-01-22T18:09:18.285Z,49.78
2023-01-22T18:11:45.995Z,49.21
2023-01-22T18:14:21.731Z,49.17
2023-01-22T18:16:50.423Z,48.66
2023-01-22T18:19:18.904Z,48.96
2023-01-22T18:21:46.486Z,49.59
2023-01-22T18:24:14.273Z,49.67
2023-01-22T18:26:42.369Z,49.70
2023-01-22T18:29:11.570Z,50.06
2023-01-22T18:31:41.853Z,50.03
2023-01-22T18:34:12.831Z,50.16
2023-01-22T18:36:40.535Z,50.89
2023-01-22T18:39:15.032Z,51.23
2023-01-22T18:41:45.034Z,51.29
2023-01-22T18:44:16.218Z,51.82
2023-01-22T18:46:47.456Z,52.21
2023-01-22T18:49:18.579Z,52.95
2023-01-22T18:51:46.849Z,52.91
2023-01-22T18:54:15.455Z,53.03
2023-01-22T18:56:42.972Z,53.82
2023-01-22T18:59:13.013Z,54.25
2023-01-22T19:01:41.088Z,54.27
2023-01-22T19:04:10.256Z,54.48
2023-01-22T19:06:39.292Z,55.06
2023-01-22T19:09:14.043Z,54.83
2023-01-22T19:11:43.868Z,54.43
2023-01-22T19:14:15.779Z,53.83
2023-01-22T19:16:48.594Z,55.69
2023-01-22T19:19:17.070Z,55.34
2023-01-22T19:21:49.187Z,55.34
2023-01-22T19:24:18.738Z,55.79
2023-01-22T19:26:47.007Z,55.58
2023-01-22T19:29:17.683Z,55.23
2023-01-22T19:31:47.895Z,56.35
2023-01-22T19:34:23.328Z,59.11
2023-01-22T19:36:53.899Z,58.01
2023-01-22T19:39:22.746Z,58.66
2023-01-22T19:41:50.322Z,58.45
2023-01-22T19:44:18.331Z,57.55
2023-01-22T19:46:46.370Z,57.64
2023-01-22T19:49:14.111Z,54.60
2023-01-22T19:51:41.947Z,56.03
2023-01-22T19:54:10.565Z,54.95
2023-01-22T19:56:39.844Z,55.25
2023-01-22T19:59:12.820Z,55.49
2023-01-22T20:01:41.391Z,55.64
2023-01-22T20:04:12.580Z,52.99
2023-01-22T20:06:40.850Z,54.48
2023-01-22T20:09:10.566Z,53.99
2023-01-22T20:11:38.846Z,53.87
2023-01-22T20:14:06.481Z,53.81
2023-01-22T20:16:34.477Z,53.99
2023-01-22T20:19:02.424Z,54.47
2023-01-22T20:21:30.915Z,53.64
2023-01-22T20:23:58.453Z,54.08
2023-01-22T20:26:27.660Z,53.94
2023-01-22T20:28:55.828Z,54.57
2023-01-22T20:31:24.958Z,54.53
2023-01-22T20:33:54.755Z,55.60
2023-01-22T20:36:23.916Z,55.63
2023-01-22T20:38:53.320Z,55.73
2023-01-22T20:41:23.951Z,55.14
2023-01-22T20:43:53.209Z,55.04
2023-01-22T20:46:23.757Z,56.36
2023-01-22T20:48:52.195Z,57.04
2023-01-22T20:51:26.326Z,57.28
2023-01-22T20:53:55.674Z,57.68
2023-01-22T20:56:28.421Z,58.59
2023-01-22T20:59:07.085Z,58.60
2023-01-22T21:01:35.528Z,59.47
2023-01-22T21:04:03.818Z,60.79
2023-01-22T21:06:35.338Z,61.86
2023-01-22T21:09:04.685Z,62.02
2023-01-22T21:11:34.533Z,65.13
2023-01-22T21:14:07.635Z,65.48
2023-01-22T21:16:38.261Z,64.87
2023-01-22T21:19:26.178Z,64.55
2023-01-22T21:21:55.447Z,66.14
2023-01-22T21:24:24.585Z,65.23
2023-01-22T21:26:52.599Z,63.70
2023-01-22T21:29:22.470Z,64.84
2023-01-22T21:31:52.569Z,66.30
2023-01-22T21:34:24.368Z,65.17
2023-01-22T21:36:54.695Z,67.92
2023-01-22T21:39:24.731Z,65.38
2023-01-22T21:42:12.516Z,67.66
2023-01-22T21:44:59.687Z,70.25
2023-01-22T21:47:29.128Z,69.04
2023-01-22T21:49:57.208Z,69.59
2023-01-22T21:52:26.306Z,69.36
2023-01-22T21:54:53.842Z,67.73
2023-01-22T21:57:22.254Z,67.73
2023-01-22T21:59:49.907Z,67.30
2023-01-22T22:02:19.687Z,66.99
2023-01-22T22:04:47.793Z,66.44
2023-01-22T22:07:15.490Z,68.00
2023-01-22T22:09:44.332Z,66.40
2023-01-22T22:12:12.016Z,65.37
2023-01-22T22:14:39.922Z,67.11
2023-01-22T22:17:07.847Z,67.38
2023-01-22T22:19:35.400Z,67.89
2023-01-22T22:22:02.898Z,71.87
2023-01-22T22:24:32.830Z,72.79
2023-01-22T22:27:01.331Z,73.15
2023-01-22T22:29:28.861Z,71.02
2023-01-22T22:31:56.304Z,69.85
2023-01-22T22:34:24.191Z,69.25
2023-01-22T22:36:51.645Z,70.82
2023-01-22T22:39:19.547Z,69.56
2023-01-22T22:41:47.002Z,69.55
2023-01-22T22:44:15.128Z,71.80
2023-01-22T22:46:42.652Z,71.41
2023-01-22T22:49:13.175Z,71.99
2023-01-22T22:51:42.724Z,72.35
2023-01-22T22:54:20.010Z,73.22
2023-01-22T22:56:48.943Z,75.72
2023-01-22T22:59:19.706Z,74.45
2023-01-22T23:01:50.783Z,76.72
2023-01-22T23:04:19.395Z,75.86
2023-01-22T23:06:48.143Z,76.27
2023-01-22T23:09:19.722Z,74.79
2023-01-22T23:11:51.601Z,74.22
2023-01-22T23:14:19.727Z,74.94
2023-01-22T23:16:47.711Z,75.11
2023-01-22T23:19:18.322Z,71.33
2023-01-22T23:21:49.508Z,71.44
2023-01-22T23:24:17.164Z,71.83
2023-01-22T23:26:45.799Z,70.18
2023-01-22T23:29:17.919Z,70.76
2023-01-22T23:31:45.735Z,69.19
2023-01-22T23:34:19.842Z,70.76
2023-01-22T23:36:49.671Z,69.28
2023-01-22T23:39:19.849Z,67.73
2023-01-22T23:41:47.850Z,70.61
2023-01-22T23:44:15.467Z,69.53
2023-01-22T23:46:43.223Z,71.48
2023-01-22T23:49:10.744Z,68.46
2023-01-22T23:51:41.314Z,70.67
2023-01-22T23:54:09.582Z,71.92
2023-01-22T23:56:37.799Z,71.67
2023-01-22T23:59:05.811Z,72.88
